createdAt,value
2023-11-20T00:04:11.655Z,35.03
2023-11-20T00:09:14.344Z,31.73
2023-11-20T00:14:18.629Z,35.50
2023-11-20T00:19:21.660Z,33.22
2023-11-20T00:24:27.229Z,41.22
2023-11-20T00:29:32.279Z,37.88
2023-11-20T00:34:36.992Z,32.97
2023-11-20T00:39:39.312Z,35.10
2023-11-20T00:44:41.563Z,31.27
2023-11-20T00:49:45.448Z,36.00
2023-11-20T00:54:47.722Z,35.80
2023-11-20T00:59:51.509Z,35.22
2023-11-20T01:04:53.679Z,49.95
2023-11-20T01:09:55.924Z,40.13
2023-11-20T01:14:59.072Z,37.42
2023-11-20T01:20:01.513Z,30.20
2023-11-20T01:25:05.066Z,31.17
2023-11-20T01:30:11.011Z,23.73
2023-11-20T01:35:13.428Z,19.35
2023-11-20T01:40:15.982Z,15.75
2023-11-20T01:45:18.350Z,13.95
2023-11-20T01:50:21.653Z,26.13
2023-11-20T01:55:24.095Z,11.55
2023-11-20T02:00:28.048Z,16.35
2023-11-20T02:05:30.288Z,17.77
2023-11-20T02:10:32.704Z,17.13
2023-11-20T02:15:35.467Z,19.80
2023-11-20T02:20:39.703Z,21.60
2023-11-20T02:25:42.039Z,21.08
2023-11-20T02:30:44.386Z,21.13
2023-11-20T02:35:47.116Z,13.45
2023-11-20T02:40:49.932Z,16.08
2023-11-20T02:45:52.197Z,16.20
2023-11-20T02:50:54.883Z,13.32
2023-11-20T02:55:57.693Z,12.27
2023-11-20T03:01:01.189Z,10.77
2023-11-20T03:06:04.121Z,9.60
2023-11-20T03:11:06.892Z,12.98
2023-11-20T03:16:09.998Z,17.05
2023-11-20T03:21:12.606Z,14.20
2023-11-20T03:26:15.172Z,24.75
2023-11-20T03:31:18.186Z,16.33
2023-11-20T03:36:29.141Z,21.45
2023-11-20T03:41:31.589Z,21.25
2023-11-20T03:46:34.023Z,15.93
2023-11-20T03:51:36.441Z,15.85
2023-11-20T03:56:38.655Z,22.33
2023-11-20T04:01:40.997Z,15.60
2023-11-20T04:06:43.294Z,19.13
2023-11-20T04:11:45.525Z,18.35
2023-11-20T04:16:47.781Z,20.35
2023-11-20T04:21:50.625Z,17.92
2023-11-20T04:26:53.299Z,20.52
2023-11-20T04:31:55.527Z,20.13
2023-11-20T04:36:57.702Z,24.35
2023-11-20T04:41:59.977Z,18.70
2023-11-20T04:47:02.378Z,20.40
2023-11-20T04:52:05.328Z,19.50
2023-11-20T04:57:07.586Z,19.65
2023-11-20T05:02:09.933Z,22.85
2023-11-20T05:07:12.185Z,28.02
2023-11-20T05:12:14.496Z,32.55
2023-11-20T05:17:20.256Z,30.23
2023-11-20T05:22:25.722Z,51.78
2023-11-20T05:27:32.222Z,24.88
2023-11-20T05:32:34.543Z,22.98
2023-11-20T05:37:36.957Z,26.15
2023-11-20T05:42:39.771Z,33.25
2023-11-20T05:47:42.198Z,29.33
2023-11-20T05:52:44.480Z,29.52
2023-11-20T05:57:46.776Z,36.72
2023-11-20T06:02:49.341Z,41.40
2023-11-20T06:07:53.237Z,43.45
2023-11-20T06:12:55.514Z,28.40
2023-11-20T06:17:58.480Z,54.47
2023-11-20T06:23:00.751Z,30.20
2023-11-20T06:28:03.640Z,28.73
2023-11-20T06:33:06.583Z,27.23
2023-11-20T06:38:10.516Z,29.58
2023-11-20T06:43:13.326Z,22.27
2023-11-20T06:48:15.927Z,18.50
2023-11-20T06:53:18.554Z,21.63
2023-11-20T06:58:21.005Z,12.70
2023-11-20T07:03:25.251Z,12.50
2023-11-20T07:08:28.736Z,15.27
2023-11-20T07:13:31.133Z,14.07
2023-11-20T07:18:34.803Z,14.52
2023-11-20T07:23:37.164Z,15.77
2023-11-20T07:28:39.359Z,18.40
2023-11-20T07:33:41.932Z,18.85
2023-11-20T07:38:44.943Z,17.25
2023-11-20T07:43:47.731Z,34.08
2023-11-20T07:48:52.202Z,22.50
2023-11-20T07:53:55.502Z,27.50
2023-11-20T07:58:57.939Z,14.95
2023-11-20T08:04:00.903Z,17.50
2023-11-20T08:09:03.803Z,22.55
2023-11-20T08:14:07.169Z,13.10
2023-11-20T08:19:09.499Z,17.90
2023-11-20T08:24:15.479Z,20.00
2023-11-20T08:29:21.214Z,15.00
2023-11-20T08:34:24.195Z,16.40
2023-11-20T08:39:33.645Z,15.38
2023-11-20T08:44:36.084Z,15.38
2023-11-20T08:49:38.853Z,19.77
2023-11-20T08:54:42.383Z,14.43
2023-11-20T08:59:44.558Z,13.55
2023-11-20T09:04:46.878Z,15.23
2023-11-20T09:09:49.703Z,14.25
2023-11-20T09:14:51.965Z,15.95
2023-11-20T09:19:54.219Z,16.00
2023-11-20T09:25:04.650Z,12.30
2023-11-20T09:30:08.707Z,15.52
2023-11-20T09:35:11.805Z,17.13
2023-11-20T09:40:15.105Z,15.15
2023-11-20T09:45:28.805Z,14.48
2023-11-20T09:50:31.191Z,14.00
2023-11-20T09:55:33.884Z,15.57
2023-11-20T10:00:36.926Z,12.98
2023-11-20T10:05:50.124Z,16.77
2023-11-20T10:10:52.965Z,16.92
2023-11-20T10:15:56.161Z,18.50
2023-11-20T10:21:01.999Z,23.40
2023-11-20T10:26:04.395Z,18.17
2023-11-20T10:31:06.702Z,15.05
2023-11-20T10:36:16.879Z,20.00
2023-11-20T10:41:19.099Z,22.05
2023-11-20T10:46:22.021Z,14.63
2023-11-20T10:51:25.584Z,14.60
2023-11-20T10:56:33.344Z,13.27
2023-11-20T11:01:37.669Z,15.02
2023-11-20T11:06:43.551Z,16.67
2023-11-20T11:11:49.604Z,12.82
2023-11-20T11:17:03.316Z,15.07
2023-11-20T11:22:12.303Z,16.20
2023-11-20T11:27:23.635Z,15.40
2023-11-20T11:32:31.691Z,17.10
2023-11-20T11:37:52.161Z,17.70
2023-11-20T11:42:58.252Z,9.88
2023-11-20T11:48:00.893Z,19.38
2023-11-20T11:53:05.061Z,15.25
2023-11-20T11:58:14.272Z,13.65
2023-11-20T12:03:36.562Z,11.80
2023-11-20T12:08:38.954Z,9.75
2023-11-20T12:14:16.489Z,13.75
2023-11-20T12:19:18.826Z,12.07
2023-11-20T12:24:21.742Z,12.05
2023-11-20T12:29:23.925Z,11.82
2023-11-20T12:34:26.169Z,10.13
2023-11-20T12:39:29.933Z,7.07
2023-11-20T12:44:33.847Z,5.07
2023-11-20T12:49:35.997Z,7.20
2023-11-20T12:54:39.378Z,8.38
2023-11-20T12:59:45.231Z,6.63
2023-11-20T13:04:53.950Z,10.00
2023-11-20T13:09:56.759Z,9.57
2023-11-20T13:15:02.536Z,6.57
2023-11-20T13:20:31.456Z,6.88
2023-11-20T13:25:33.940Z,8.05
2023-11-20T13:30:36.641Z,8.23
2023-11-20T13:35:39.076Z,8.02
2023-11-20T13:40:42.653Z,20.42
2023-11-20T13:45:47.466Z,18.92
2023-11-20T13:50:49.871Z,13.43
2023-11-20T13:55:54.732Z,14.23
2023-11-20T14:00:59.546Z,10.35
2023-11-20T14:06:03.201Z,11.55
2023-11-20T14:11:05.870Z,12.52
2023-11-20T14:16:13.700Z,7.07
2023-11-20T14:21:18.040Z,11.02
2023-11-20T14:26:29.653Z,11.60
2023-11-20T14:31:36.959Z,10.43
2023-11-20T14:36:39.402Z,11.18
2023-11-20T14:41:41.747Z,12.50
2023-11-20T14:46:44.303Z,11.75
2023-11-20T14:51:46.657Z,14.88
2023-11-20T14:57:07.619Z,16.17
2023-11-20T15:02:12.789Z,18.90
2023-11-20T15:12:33.926Z,21.95
2023-11-20T15:17:36.330Z,30.55
2023-11-20T15:22:41.918Z,28.52
2023-11-20T15:27:44.833Z,30.45
2023-11-20T15:32:49.439Z,33.40
2023-11-20T15:37:52.705Z,34.50
2023-11-20T15:42:55.103Z,33.15
2023-11-20T15:47:58.491Z,36.90
2023-11-20T15:53:01.509Z,43.63
2023-11-20T15:58:04.539Z,43.75
2023-11-20T16:03:07.242Z,40.45
2023-11-20T16:08:10.209Z,44.88
2023-11-20T16:13:13.478Z,41.53
2023-11-20T16:18:16.492Z,46.45
2023-11-20T16:23:18.704Z,49.95
2023-11-20T16:28:20.981Z,47.28
2023-11-20T16:33:23.234Z,41.35
2023-11-20T16:38:25.528Z,50.92
2023-11-20T16:43:27.978Z,56.40
2023-11-20T16:48:31.054Z,46.17
2023-11-20T16:53:35.846Z,40.17
2023-11-20T16:58:38.426Z,48.40
2023-11-20T17:03:40.824Z,41.92
2023-11-20T17:08:44.624Z,48.22
2023-11-20T17:13:48.289Z,64.97
2023-11-20T17:18:50.693Z,48.83
2023-11-20T17:23:52.825Z,46.55
2023-11-20T17:28:55.181Z,52.05
2023-11-20T17:34:01.248Z,63.45
2023-11-20T17:39:04.150Z,71.93
2023-11-20T17:44:06.363Z,63.53
2023-11-20T17:49:08.585Z,57.47
2023-11-20T17:54:13.296Z,76.45
2023-11-20T17:59:21.220Z,71.88
2023-11-20T18:04:23.945Z,63.35
2023-11-20T18:09:26.171Z,61.42
2023-11-20T18:14:28.649Z,75.53
2023-11-20T18:19:30.849Z,71.07
2023-11-20T18:24:33.260Z,69.10
2023-11-20T18:29:35.481Z,82.22
2023-11-20T18:34:38.364Z,62.55
2023-11-20T18:39:40.547Z,70.65
2023-11-20T18:44:45.891Z,63.30
2023-11-20T18:49:48.099Z,82.82
2023-11-20T18:54:50.510Z,61.05
2023-11-20T18:59:53.383Z,62.72
2023-11-20T19:04:55.636Z,55.00
2023-11-20T19:09:57.921Z,64.38
2023-11-20T19:15:02.417Z,74.38
2023-11-20T19:20:05.120Z,54.15
2023-11-20T19:25:08.489Z,58.10
2023-11-20T19:30:12.614Z,51.20
2023-11-20T19:35:15.361Z,66.03
2023-11-20T19:40:18.359Z,70.22
2023-11-20T19:45:22.577Z,52.83
2023-11-20T19:50:25.085Z,41.08
2023-11-20T19:55:27.267Z,37.05
2023-11-20T20:00:29.675Z,40.67
2023-11-20T20:05:31.934Z,40.95
2023-11-20T20:10:35.164Z,38.53
2023-11-20T20:15:39.603Z,40.28
2023-11-20T20:20:41.916Z,33.22
2023-11-20T20:25:44.548Z,43.50
2023-11-20T20:30:48.614Z,66.30
2023-11-20T20:35:50.872Z,55.28
2023-11-20T20:40:53.029Z,46.58
2023-11-20T20:45:55.187Z,45.47
2023-11-20T20:50:57.531Z,54.88
2023-11-20T20:56:06.201Z,56.70
2023-11-20T21:01:09.309Z,46.22
2023-11-20T21:06:11.735Z,31.42
2023-11-20T21:11:15.870Z,34.33
2023-11-20T21:16:18.779Z,36.15
2023-11-20T21:21:21.103Z,28.23
2023-11-20T21:26:24.391Z,29.52
2023-11-20T21:31:27.870Z,33.50
2023-11-20T21:36:30.474Z,30.05
2023-11-20T21:41:32.792Z,26.20
2023-11-20T21:46:35.490Z,35.92
2023-11-20T21:51:37.879Z,28.98
2023-11-20T21:56:41.717Z,38.33
2023-11-20T22:01:44.079Z,36.25
2023-11-20T22:06:47.219Z,50.70
2023-11-20T22:11:49.344Z,52.17
2023-11-20T22:16:51.495Z,45.03
2023-11-20T22:21:53.685Z,45.60
2023-11-20T22:26:55.842Z,40.60
2023-11-20T22:31:58.007Z,37.97
2023-11-20T22:37:00.338Z,31.58
2023-11-20T22:42:02.462Z,22.10
2023-11-20T22:47:04.838Z,33.10
2023-11-20T22:52:07.527Z,25.92
2023-11-20T22:57:09.810Z,29.40
2023-11-20T23:02:12.727Z,29.75
2023-11-20T23:07:15.089Z,35.25
2023-11-20T23:12:17.491Z,31.13
2023-11-20T23:17:19.724Z,28.77
2023-11-20T23:22:23.536Z,27.00
2023-11-20T23:27:25.850Z,26.30
2023-11-20T23:32:28.967Z,23.70
2023-11-20T23:37:31.244Z,23.10
2023-11-20T23:42:33.420Z,21.73
2023-11-20T23:47:38.185Z,28.85
2023-11-20T23:52:40.734Z,22.27
2023-11-20T23:57:42.966Z,32.60
